Terminal Aerodrome Forecast
Issued by NWS Lake Charles, LA

Home | Current Version | Previous Version | Text Only | Print | Product List | Glossary On
Versions: 1 2 3 4 5 6 7 8 9 10 11 12 13
000
FTUS44 KLCH 221100
TAFLFT
TAF
KLFT 221140Z 2212/2312 10005KT P6SM FEW025 BKN100
     FM221700 11007G18KT P6SM VCSH FEW035 BKN100
     FM230200 14009KT P6SM TSRA SCT015 OVC025CB=

USA.gov is the U.S. government's official web portal to all federal, state and local government web resources and services.